Time;durP1;ratioP1;P1;durP2;ratioP2;P2;SDS_P1;SDS_P2;PMS_P1;PMS_P2;Temp;Humidity;BMP_temperature;BMP_pressure;BME280_temperature;BME280_humidity;BME280_pressure;Samples;Min_cycle;Max_cycle;Signal;HPM_P1;HPM_P2
2022/07/30 08:12:34;;;;;;;;;;;;;;;21.50;65.37;101351.00;5086879;27;19923;-73
2022/07/30 08:14:59;;;;;;;;;;;;;;;21.47;65.33;101348.84;5101159;28;19916;-72
2022/07/30 08:17:24;;;;;;;;;;;;;;;21.53;65.34;101350.47;5065223;28;19931;-69
2022/07/30 08:19:50;;;;;;;;;;;;;;;21.67;64.85;101353.47;5079875;28;19917;-71
2022/07/30 08:22:15;;;;;;;;;;;;;;;21.69;65.00;101349.44;5083735;28;19989;-69
2022/07/30 08:24:40;;;;;;;;;;;;;;;21.76;64.72;101351.06;5064891;28;20769;-71
2022/07/30 08:27:05;;;;;;;;;;;;;;;21.81;64.75;101353.78;5067849;28;19944;-70
2022/07/30 08:29:31;;;;;;;;;;;;;;;21.84;64.66;101355.94;5077298;28;20390;-70
2022/07/30 08:31:56;;;;;;;;;;;;;;;21.84;64.92;101342.41;5102717;28;19966;-70
2022/07/30 08:34:21;;;;;;;;;;;;;;;21.81;65.14;101345.69;5054501;28;19970;-70
2022/07/30 08:36:46;;;;;;;;;;;;;;;21.92;64.62;101352.75;5082056;28;19924;-70
2022/07/30 08:39:12;;;;;;;;;;;;;;;21.95;64.60;101352.19;5072881;28;19927;-71
2022/07/30 08:41:37;;;;;;;;;;;;;;;21.99;64.40;101361.44;5064631;28;19923;-71
2022/07/30 08:44:02;;;;;;;;;;;;;;;22.08;63.75;101354.41;5090140;28;19916;-70
2022/07/30 08:46:28;;;;;;;;;;;;;;;22.16;63.40;101358.47;5061617;28;20004;-70
2022/07/30 08:48:53;;;;;;;;;;;;;;;22.20;63.18;101357.66;5075548;28;19932;-72
2022/07/30 08:51:19;;;;;;;;;;;;;;;22.31;62.94;101356.56;5082073;28;20027;-71
2022/07/30 08:53:44;;;;;;;;;;;;;;;22.31;62.59;101356.56;5072821;28;20112;-72
2022/07/30 08:56:12;;;;;;;;;;;;;;;22.34;62.25;101360.63;5078009;28;20351;-70
2022/07/30 08:58:38;;;;;;;;;;;;;;;22.43;62.06;101362.53;5048532;28;19928;-73
2022/07/30 09:01:03;;;;;;;;;;;;;;;22.39;62.00;101368.75;5064317;28;20011;-72
2022/07/30 09:03:29;;;;;;;;;;;;;;;22.44;61.60;101369.59;5033756;28;19917;-71
2022/07/30 09:05:54;;;;;;;;;;;;;;;22.48;61.56;101367.13;5051953;28;20019;-71
2022/07/30 09:08:19;;;;;;;;;;;;;;;22.60;61.55;101366.84;5034169;28;19959;-71
2022/07/30 09:10:45;;;;;;;;;;;;;;;22.55;61.24;101370.38;5044914;28;19968;-71
2022/07/30 09:13:30;;;;;;;;;;;;;;;22.60;61.12;101373.09;5043336;28;19917;-71
2022/07/30 09:15:55;;;;;;;;;;;;;;;22.59;61.11;101368.75;5041238;28;19944;-70
2022/07/30 09:18:31;;;;;;;;;;;;;;;22.73;60.80;101369.81;5024784;28;19979;-70
2022/07/30 09:21:00;;;;;;;;;;;;;;;22.79;60.55;101359.81;5042786;28;19972;-70
2022/07/30 09:23:25;;;;;;;;;;;;;;;22.73;60.59;101369.81;5047156;28;19924;-70
2022/07/30 09:25:50;;;;;;;;;;;;;;;22.82;60.51;101373.59;5014252;28;19975;-71
2022/07/30 09:28:16;;;;;;;;;;;;;;;22.91;60.20;101378.47;5064391;28;19917;-70
2022/07/30 09:30:43;;;;;;;;;;;;;;;22.96;59.83;101379.28;5047759;28;20449;-71
2022/07/30 09:33:08;;;;;;;;;;;;;;;22.96;59.99;101379.28;5063096;28;19921;-68
2022/07/30 09:35:33;;;;;;;;;;;;;;;22.97;60.24;101378.22;5014460;28;19917;-71
2022/07/30 09:37:59;;;;;;;;;;;;;;;22.98;60.21;101376.31;5014680;28;19920;-69
2022/07/30 09:40:24;;;;;;;;;;;;;;;23.03;60.10;101382.50;5031298;28;19948;-70
2022/07/30 09:43:00;;;;;;;;;;;;;;;23.15;59.98;101380.31;5014192;28;19939;-70
2022/07/30 09:45:25;;;;;;;;;;;;;;;24.03;57.62;101379.66;4984663;28;19970;-72
2022/07/30 09:47:50;;;;;;;;;;;;;;;23.42;58.96;101387.28;5008854;28;19929;-72
2022/07/30 09:50:16;;;;;;;;;;;;;;;23.37;59.24;101390.81;5027368;28;19929;-72
2022/07/30 09:52:42;;;;;;;;;;;;;;;23.31;58.90;101391.13;5030728;28;19921;-72
2022/07/30 09:55:07;;;;;;;;;;;;;;;23.30;59.24;101384.06;5047046;28;19928;-72
2022/07/30 09:57:32;;;;;;;;;;;;;;;23.16;59.47;101387.38;5048693;28;19925;-72
2022/07/30 10:00:00;;;;;;;;;;;;;;;23.30;58.84;101384.88;5044477;28;20411;-72
2022/07/30 10:02:31;;;;;;;;;;;;;;;23.12;59.70;101386.28;5043872;28;19933;-72
2022/07/30 10:05:09;;;;;;;;;;;;;;;23.17;59.93;101386.25;5029351;28;19913;-72
2022/07/30 10:07:35;;;;;;;;;;;;;;;23.08;60.28;101385.22;5013833;28;19924;-70
2022/07/30 10:10:00;;;;;;;;;;;;;;;22.85;60.88;101388.53;5036250;28;19917;-71
2022/07/30 10:12:25;;;;;;;;;;;;;;;22.97;60.85;101389.03;5050630;28;19963;-70
2022/07/30 10:14:51;;;;;;;;;;;;;;;22.85;61.05;101377.69;5034122;28;19968;-71
2022/07/30 10:17:17;;;;;;;;;;;;;;;22.68;61.65;101382.56;5034479;28;19917;-69
2022/07/30 10:41:00;;;;;;;;;;;;;;;22.53;61.82;101398.81;5720841;23;19926;-69
2022/07/30 11:20:00;;;;;;;;;;;;;;;22.91;60.40;101402.84;5049134;23;19936;-70
2022/07/30 11:22:27;;;;;;;;;;;;;;;22.97;60.20;101397.19;5023198;28;20016;-71
2022/07/30 11:24:52;;;;;;;;;;;;;;;23.16;60.20;101394.69;5025635;28;20353;-70
2022/07/30 11:27:36;;;;;;;;;;;;;;;23.18;60.01;101393.31;4992445;28;19928;-70
2022/07/30 11:30:02;;;;;;;;;;;;;;;22.91;60.15;101395.53;5009110;28;20494;-71
2022/07/30 11:32:29;;;;;;;;;;;;;;;23.03;59.93;101392.53;4993067;28;19932;-72
2022/07/30 11:35:13;;;;;;;;;;;;;;;22.88;60.00;101390.69;4992803;28;19917;-71
2022/07/30 11:37:57;;;;;;;;;;;;;;;23.03;59.35;101387.94;5009300;28;19917;-72
2022/07/30 11:40:24;;;;;;;;;;;;;;;22.97;59.24;101382.81;5006105;28;19929;-70
2022/07/30 11:42:49;;;;;;;;;;;;;;;23.16;59.44;101379.25;5007040;28;19917;-72
2022/07/30 11:45:14;;;;;;;;;;;;;;;23.31;58.92;101385.69;4992148;28;19925;-72
2022/07/30 11:47:41;;;;;;;;;;;;;;;23.25;58.56;101382.19;5009456;28;19918;-70
2022/07/30 11:50:06;;;;;;;;;;;;;;;23.16;58.34;101373.81;5009582;28;19939;-70
2022/07/30 11:52:32;;;;;;;;;;;;;;;23.17;57.64;101380.06;5009480;28;20004;-71
2022/07/30 11:54:57;;;;;;;;;;;;;;;23.24;57.30;101377.03;5042279;28;19957;-72
2022/07/30 11:57:38;;;;;;;;;;;;;;;23.29;57.82;101383.25;5042466;28;19949;-71
2022/07/30 12:00:04;;;;;;;;;;;;;;;23.18;57.71;101378.94;5025207;28;19917;-70
2022/07/30 12:02:29;;;;;;;;;;;;;;;23.20;56.91;101374.06;5025089;28;19944;-69
2022/07/30 12:04:54;;;;;;;;;;;;;;;23.27;57.20;101373.75;5008616;28;19972;-70
2022/07/30 12:07:23;;;;;;;;;;;;;;;23.29;56.39;101368.88;5041406;28;19960;-70
2022/07/30 12:09:48;;;;;;;;;;;;;;;23.40;55.46;101365.03;5041068;28;19922;-72
2022/07/30 12:12:23;;;;;;;;;;;;;;;23.42;55.73;101368.28;5045350;28;19928;-71
2022/07/30 12:14:48;;;;;;;;;;;;;;;23.45;54.82;101373.97;5031477;28;20161;-71
2022/07/30 12:17:13;;;;;;;;;;;;;;;23.42;54.91;101376.44;5009005;28;19922;-71
2022/07/30 12:19:42;;;;;;;;;;;;;;;23.33;55.15;101384.34;5016863;28;19961;-71
2022/07/30 12:22:08;;;;;;;;;;;;;;;23.32;55.79;101377.28;5007506;28;20056;-71
2022/07/30 12:24:33;;;;;;;;;;;;;;;23.35;56.05;101375.94;4991861;28;20040;-71
2022/07/30 12:27:04;;;;;;;;;;;;;;;23.41;56.13;101381.03;5007619;28;20011;-71
2022/07/30 12:29:31;;;;;;;;;;;;;;;23.48;56.61;101381.53;5009308;28;19927;-71
2022/07/30 12:31:56;;;;;;;;;;;;;;;23.51;56.39;101375.59;5010593;28;20028;-70
2022/07/30 12:34:24;;;;;;;;;;;;;;;23.54;55.83;101371.50;5025897;28;20506;-70
2022/07/30 12:36:50;;;;;;;;;;;;;;;23.58;56.33;101369.88;5010926;28;19968;-71
2022/07/30 12:39:33;;;;;;;;;;;;;;;23.64;56.18;101371.47;5021384;28;19917;-72
2022/07/30 12:41:59;;;;;;;;;;;;;;;23.66;56.56;101366.56;5009163;28;20395;-70
2022/07/30 12:44:40;;;;;;;;;;;;;;;23.54;56.45;101371.50;5008126;28;19998;-70
2022/07/30 12:47:16;;;;;;;;;;;;;;;23.40;56.96;101373.19;5008308;28;19984;-71
2022/07/30 12:49:42;;;;;;;;;;;;;;;23.62;56.14;101360.06;5007349;28;19918;-69
2022/07/30 12:52:07;;;;;;;;;;;;;;;23.73;55.51;101366.25;5017058;28;19925;-69
2022/07/30 12:54:32;;;;;;;;;;;;;;;23.74;55.97;101367.88;5013260;28;19926;-69
2022/07/30 12:57:01;;;;;;;;;;;;;;;23.77;55.58;101367.31;4993733;28;20000;-71
2022/07/30 12:59:27;;;;;;;;;;;;;;;23.79;55.82;101365.97;5011745;28;20007;-70
2022/07/30 13:01:52;;;;;;;;;;;;;;;23.80;55.94;101362.13;5019135;28;20107;-70
2022/07/30 13:04:17;;;;;;;;;;;;;;;23.83;56.04;101360.78;5007552;28;19924;-71
2022/07/30 13:06:43;;;;;;;;;;;;;;;23.87;55.98;101359.94;5003035;28;19918;-71
2022/07/30 13:09:18;;;;;;;;;;;;;;;23.86;56.23;101349.38;4993295;28;19921;-68
2022/07/30 13:11:44;;;;;;;;;;;;;;;23.88;56.29;101352.63;4995194;28;19971;-68
2022/07/30 13:14:11;;;;;;;;;;;;;;;23.96;56.31;101356.63;5011411;28;19918;-68
2022/07/30 13:16:36;;;;;;;;;;;;;;;23.98;56.52;101343.59;4995397;28;19972;-68
2022/07/30 13:19:02;;;;;;;;;;;;;;;24.00;56.32;101346.81;5011329;28;19925;-68
2022/07/30 13:21:27;;;;;;;;;;;;;;;23.99;56.70;101347.91;4995415;28;19929;-68
2022/07/30 13:23:52;;;;;;;;;;;;;;;23.99;57.00;101345.19;4995560;28;20363;-68
2022/07/30 13:26:17;;;;;;;;;;;;;;;23.97;57.13;101341.97;5012077;28;19956;-68
2022/07/30 13:28:45;;;;;;;;;;;;;;;23.92;57.25;101338.19;5011870;28;19917;-68
2022/07/30 13:31:13;;;;;;;;;;;;;;;23.93;56.82;101339.81;4995278;28;19949;-68
2022/07/30 13:33:38;;;;;;;;;;;;;;;23.92;57.18;101343.63;5011872;28;19929;-67
2022/07/30 13:36:04;;;;;;;;;;;;;;;23.91;57.34;101341.16;4995085;28;19917;-68
2022/07/30 13:38:29;;;;;;;;;;;;;;;23.92;57.07;101330.03;5011637;28;19948;-67
2022/07/30 13:40:55;;;;;;;;;;;;;;;23.95;57.01;101336.81;5011630;28;19921;-68
2022/07/30 13:43:20;;;;;;;;;;;;;;;23.96;56.91;101333.00;4995341;28;19917;-68
2022/07/30 13:45:45;;;;;;;;;;;;;;;23.96;56.90;101332.19;4995059;28;19941;-68
2022/07/30 13:48:11;;;;;;;;;;;;;;;23.97;56.92;101331.09;4995627;28;19917;-68
2022/07/30 13:50:36;;;;;;;;;;;;;;;23.95;56.95;101328.69;4995398;28;20418;-68
2022/07/30 13:53:01;;;;;;;;;;;;;;;23.94;57.28;101327.06;5012862;28;19924;-69
2022/07/30 13:55:27;;;;;;;;;;;;;;;23.96;57.18;101332.19;4995214;28;20077;-68
2022/07/30 13:57:52;;;;;;;;;;;;;;;23.97;56.92;101329.22;5011303;28;19920;-68
2022/07/30 14:00:17;;;;;;;;;;;;;;;23.97;57.00;101331.09;4995564;28;19918;-68
2022/07/30 14:02:42;;;;;;;;;;;;;;;24.00;57.15;101327.81;4994928;28;19917;-69
2022/07/30 14:05:08;;;;;;;;;;;;;;;24.01;56.87;101329.44;4994721;28;19925;-69
2022/07/30 14:07:36;;;;;;;;;;;;;;;24.05;57.01;101327.78;5011356;28;19917;-69
2022/07/30 14:10:02;;;;;;;;;;;;;;;24.07;56.76;101317.47;5012458;28;19928;-69
2022/07/30 14:12:28;;;;;;;;;;;;;;;24.08;56.68;101313.63;5011258;28;20084;-68
2022/07/30 14:14:53;;;;;;;;;;;;;;;24.08;56.69;101317.16;5011445;28;19925;-69
2022/07/30 14:17:18;;;;;;;;;;;;;;;24.14;56.64;101317.94;5012151;28;19920;-69
2022/07/30 14:19:43;;;;;;;;;;;;;;;24.16;56.66;101316.53;4994310;28;19922;-69
2022/07/30 14:30:13;;;;;;;;;;;;;;;24.29;56.18;101309.69;5950534;23;19936;-69
2022/07/30 14:32:39;;;;;;;;;;;;;;;24.36;56.26;101312.06;5047607;28;19920;-68
2022/07/30 14:35:07;;;;;;;;;;;;;;;24.36;56.16;101303.91;5033491;28;19916;-69
2022/07/30 14:37:33;;;;;;;;;;;;;;;24.39;55.87;101312.31;5034075;28;19917;-69
2022/07/30 14:39:59;;;;;;;;;;;;;;;24.37;55.57;101311.78;5033413;28;19923;-68
2022/07/30 14:42:49;;;;;;;;;;;;;;;24.39;55.89;101312.31;5049969;28;19917;-68
2022/07/30 14:45:15;;;;;;;;;;;;;;;24.46;55.69;101310.06;5041807;28;19928;-70
2022/07/30 14:47:40;;;;;;;;;;;;;;;24.54;55.76;101316.78;5033317;28;19920;-70
2022/07/30 14:50:06;;;;;;;;;;;;;;;24.51;55.54;101312.75;5050581;28;19978;-70
2022/07/30 14:52:33;;;;;;;;;;;;;;;24.48;55.12;101310.59;5049601;28;19927;-69
2022/07/30 14:54:59;;;;;;;;;;;;;;;24.51;55.28;101315.47;5032715;28;19920;-70
2022/07/30 14:57:25;;;;;;;;;;;;;;;24.54;55.28;101323.03;5033102;28;19924;-70
2022/07/30 14:59:50;;;;;;;;;;;;;;;24.51;55.17;101317.38;5032773;28;19913;-70
2022/07/30 15:07:53;;;;;;;;;;;;;;;24.61;55.62;101323.50;5246452;23;19981;-70
2022/07/30 15:10:18;;;;;;;;;;;;;;;24.66;55.27;101315.31;4997829;28;19929;-70
2022/07/30 15:12:43;;;;;;;;;;;;;;;24.57;55.39;101322.47;5030927;28;19956;-69
2022/07/30 15:15:09;;;;;;;;;;;;;;;24.55;54.92;101315.69;5030943;28;19937;-69
2022/07/30 15:17:36;;;;;;;;;;;;;;;24.54;54.39;101319.50;5047194;28;19913;-70
2022/07/30 15:20:01;;;;;;;;;;;;;;;24.52;54.60;101319.78;5014169;28;19913;-69
2022/07/30 15:22:26;;;;;;;;;;;;;;;24.51;54.19;101317.38;5047066;28;20013;-70
2022/07/30 15:24:52;;;;;;;;;;;;;;;24.48;53.88;101317.94;5046919;28;20327;-70
2022/07/30 15:27:17;;;;;;;;;;;;;;;24.48;54.62;101318.75;5014018;28;19937;-70
2022/07/30 15:29:43;;;;;;;;;;;;;;;24.48;53.93;101323.38;5030338;28;20298;-69
2022/07/30 15:32:08;;;;;;;;;;;;;;;24.48;54.22;101318.75;5047100;28;19914;-69
2022/07/30 15:34:33;;;;;;;;;;;;;;;24.49;54.48;101314.94;5030649;28;20381;-69
2022/07/30 15:36:59;;;;;;;;;;;;;;;24.51;54.52;101317.38;5030415;28;19925;-70
2022/07/30 15:39:24;;;;;;;;;;;;;;;24.52;54.64;101325.22;5029954;28;19921;-69
2022/07/30 15:41:52;;;;;;;;;;;;;;;24.51;54.79;101323.63;5015092;28;19918;-70
2022/07/30 15:44:18;;;;;;;;;;;;;;;24.52;55.17;101327.13;5013848;28;19921;-70
2022/07/30 15:46:43;;;;;;;;;;;;;;;24.52;54.88;101327.13;5030038;28;19949;-70
2022/07/30 15:49:08;;;;;;;;;;;;;;;24.51;54.16;101331.78;5014987;28;20426;-69
2022/07/30 15:51:34;;;;;;;;;;;;;;;24.61;54.66;101334.34;5046553;28;19928;-70
2022/07/30 15:53:59;;;;;;;;;;;;;;;24.56;54.59;101328.19;5032240;28;19920;-70
2022/07/30 15:58:58;;;;;;;;;;;;;;;24.50;54.66;101319.28;5013663;28;20248;-71
2022/07/30 16:01:24;;;;;;;;;;;;;;;24.48;50.44;101316.03;5011307;28;19921;-72
2022/07/30 16:03:49;;;;;;;;;;;;;;;24.39;51.32;101319.66;5012900;28;19960;-70
2022/07/30 16:06:14;;;;;;;;;;;;;;;24.39;51.99;101322.38;4996128;28;19920;-73
2022/07/30 16:08:39;;;;;;;;;;;;;;;24.41;52.32;101323.72;5000537;28;20055;-72
2022/07/30 16:11:05;;;;;;;;;;;;;;;24.41;52.32;101314.75;5016351;28;19913;-73
